Time;durP1;ratioP1;P1;durP2;ratioP2;P2;SDS_P1;SDS_P2;PMS_P1;PMS_P2;Temp;Humidity;BMP_temperature;BMP_pressure;BME280_temperature;BME280_humidity;BME280_pressure;Samples;Min_cycle;Max_cycle;Signal;HPM_P1;HPM_P2
2024/02/22 00:01:38;;;;;;;1.58;1.48;;;10.60;99.90;;;;;;5042014;28;20021;-32
2024/02/22 00:04:03;;;;;;;1.50;1.40;;;10.60;99.90;;;;;;5041630;28;20353;-34
2024/02/22 00:06:29;;;;;;;1.65;1.55;;;10.60;99.90;;;;;;5040683;28;20032;-35
2024/02/22 00:08:55;;;;;;;1.65;1.55;;;10.60;99.90;;;;;;5041468;28;20059;-33
2024/02/22 00:11:21;;;;;;;1.77;1.67;;;10.60;99.90;;;;;;5041192;28;20044;-33
2024/02/22 00:13:46;;;;;;;1.60;1.50;;;10.60;99.90;;;;;;5041433;28;20036;-33
2024/02/22 00:16:15;;;;;;;1.30;1.30;;;10.60;99.90;;;;;;5041464;28;20340;-33
2024/02/22 00:18:41;;;;;;;1.80;1.70;;;10.60;99.90;;;;;;5041824;28;20041;-34
2024/02/22 00:21:08;;;;;;;1.80;1.70;;;10.60;99.90;;;;;;5039642;28;20029;-31
2024/02/22 00:23:34;;;;;;;1.80;1.70;;;10.60;99.90;;;;;;5041848;28;20099;-35
2024/02/22 00:26:00;;;;;;;1.90;1.80;;;10.60;99.90;;;;;;5041048;28;20286;-35
2024/02/22 00:28:25;;;;;;;2.05;1.85;;;10.60;99.90;;;;;;5041149;28;20027;-36
2024/02/22 00:30:51;;;;;;;1.70;1.60;;;10.70;99.90;;;;;;5041109;28;20112;-36
2024/02/22 00:33:16;;;;;;;1.83;1.73;;;10.70;99.90;;;;;;5041219;28;20033;-37
2024/02/22 00:35:42;;;;;;;1.88;1.77;;;10.70;99.90;;;;;;5040749;28;20047;-37
2024/02/22 00:38:08;;;;;;;1.55;1.45;;;10.70;99.90;;;;;;5040892;28;20035;-36
2024/02/22 00:40:34;;;;;;;1.58;1.40;;;10.70;99.90;;;;;;5040601;28;20427;-38
2024/02/22 00:43:00;;;;;;;1.88;1.77;;;10.70;99.90;;;;;;5040096;28;20033;-34
2024/02/22 00:45:25;;;;;;;1.83;1.73;;;10.70;99.90;;;;;;5039717;28;20862;-33
2024/02/22 00:47:51;;;;;;;1.60;1.50;;;10.70;99.90;;;;;;5040357;28;20028;-36
2024/02/22 00:50:16;;;;;;;1.45;1.35;;;10.70;99.90;;;;;;5039237;28;20016;-36
2024/02/22 00:52:42;;;;;;;1.70;1.60;;;10.70;99.90;;;;;;5041297;28;20028;-36
2024/02/22 00:55:08;;;;;;;1.58;1.48;;;10.80;99.90;;;;;;5039491;28;20021;-36
2024/02/22 00:57:33;;;;;;;1.70;1.60;;;10.70;99.90;;;;;;5039731;28;20643;-35
2024/02/22 01:00:02;;;;;;;1.60;1.50;;;10.80;99.90;;;;;;5041187;28;20136;-36
2024/02/22 01:02:28;;;;;;;1.70;1.60;;;10.80;99.90;;;;;;5039506;28;20021;-34
2024/02/22 01:04:54;;;;;;;1.90;1.80;;;10.80;99.90;;;;;;5040586;28;20043;-34
2024/02/22 01:07:21;;;;;;;2.08;1.98;;;10.80;99.90;;;;;;5040272;28;20124;-34
2024/02/22 01:09:47;;;;;;;2.25;2.05;;;10.80;99.90;;;;;;5039894;28;20048;-33
2024/02/22 01:12:16;;;;;;;2.30;2.10;;;10.80;99.90;;;;;;5040127;28;20091;-37
2024/02/22 01:14:42;;;;;;;1.80;1.70;;;10.80;99.90;;;;;;5040663;28;20025;-37
2024/02/22 01:17:07;;;;;;;1.95;1.85;;;10.80;99.90;;;;;;5039071;28;20028;-34
2024/02/22 01:19:33;;;;;;;1.83;1.73;;;10.80;99.90;;;;;;5039686;28;20798;-36
2024/02/22 01:21:58;;;;;;;2.20;2.10;;;10.80;99.90;;;;;;5039325;28;20032;-33
2024/02/22 01:24:24;;;;;;;2.00;1.90;;;10.80;99.90;;;;;;5039221;28;20037;-34
2024/02/22 01:26:50;;;;;;;2.00;1.90;;;10.80;99.90;;;;;;5039240;28;20052;-37
2024/02/22 01:29:16;;;;;;;2.03;1.92;;;10.80;99.90;;;;;;5040233;28;20112;-35
2024/02/22 01:31:41;;;;;;;1.77;1.67;;;10.80;99.90;;;;;;5040142;28;20781;-35
2024/02/22 01:34:07;;;;;;;2.15;2.00;;;10.80;99.90;;;;;;5039891;28;20456;-35
2024/02/22 01:36:32;;;;;;;1.73;1.63;;;10.90;99.90;;;;;;5039642;28;20071;-35
2024/02/22 01:38:58;;;;;;;1.65;1.55;;;10.90;99.90;;;;;;5039597;28;20470;-33
2024/02/22 01:41:23;;;;;;;1.90;1.80;;;10.90;99.90;;;;;;5039575;28;20099;-34
2024/02/22 01:43:55;;;;;;;1.85;1.75;;;10.90;99.90;;;;;;5039840;28;20035;-35
2024/02/22 01:46:21;;;;;;;1.85;1.75;;;10.90;99.90;;;;;;5039473;28;20095;-36
2024/02/22 01:48:46;;;;;;;1.95;1.85;;;10.90;99.90;;;;;;5039524;28;20021;-35
2024/02/22 01:51:13;;;;;;;2.13;2.03;;;10.90;99.90;;;;;;5040167;28;20036;-31
2024/02/22 01:53:39;;;;;;;1.70;1.60;;;11.00;99.90;;;;;;5039052;28;20013;-36
2024/02/22 01:56:06;;;;;;;2.10;2.00;;;11.00;99.90;;;;;;5039698;28;20071;-34
2024/02/22 01:58:36;;;;;;;1.92;1.83;;;11.00;99.90;;;;;;5037064;28;20036;-35
2024/02/22 02:01:03;;;;;;;2.00;1.90;;;11.00;99.90;;;;;;5038806;28;20033;-31
2024/02/22 02:03:32;;;;;;;1.83;1.73;;;11.00;99.90;;;;;;5039219;28;20028;-35
2024/02/22 02:05:58;;;;;;;2.08;1.98;;;11.00;99.90;;;;;;5039157;28;20127;-34
2024/02/22 02:08:24;;;;;;;2.15;2.05;;;11.00;99.90;;;;;;5038812;28;20084;-35
2024/02/22 02:10:50;;;;;;;1.90;1.80;;;11.00;99.90;;;;;;5039168;28;20867;-33
2024/02/22 02:13:16;;;;;;;2.30;2.10;;;11.00;99.90;;;;;;5038727;28;20037;-37
2024/02/22 02:15:42;;;;;;;2.13;1.90;;;11.00;99.90;;;;;;5040203;28;20080;-36
2024/02/22 02:18:08;;;;;;;2.58;2.00;;;11.10;99.90;;;;;;5039806;28;20375;-33
2024/02/22 02:20:53;;;;;;;2.00;1.90;;;11.10;99.90;;;;;;5039067;28;20054;-32
2024/02/22 02:23:47;;;;;;;2.00;1.90;;;11.10;99.90;;;;;;5038879;28;20028;-36
2024/02/22 02:26:13;;;;;;;2.28;2.10;;;11.10;99.90;;;;;;5030698;28;20040;-34
2024/02/22 02:28:38;;;;;;;2.95;2.75;;;11.10;99.90;;;;;;5038031;28;20025;-36
2024/02/22 02:31:10;;;;;;;2.70;2.50;;;11.10;99.90;;;;;;5038242;28;20040;-36
2024/02/22 02:33:36;;;;;;;3.20;2.90;;;11.10;99.90;;;;;;5038093;28;20026;-37
2024/02/22 02:36:02;;;;;;;2.85;2.65;;;11.10;99.90;;;;;;5038311;28;20041;-33
2024/02/22 02:38:27;;;;;;;3.03;2.83;;;11.10;99.90;;;;;;5041340;28;20017;-37
2024/02/22 02:40:53;;;;;;;3.50;3.20;;;11.20;99.90;;;;;;5042087;28;20017;-36
2024/02/22 02:43:18;;;;;;;4.30;3.90;;;11.20;99.90;;;;;;5043193;28;20097;-37
2024/02/22 02:45:44;;;;;;;4.68;3.90;;;11.20;99.90;;;;;;5042654;28;20488;-35
2024/02/22 02:48:10;;;;;;;3.90;3.60;;;11.20;99.90;;;;;;5042067;28;20028;-37
2024/02/22 02:50:36;;;;;;;4.70;4.30;;;11.20;99.90;;;;;;5042511;28;20025;-32
2024/02/22 02:53:01;;;;;;;4.40;4.00;;;11.20;99.90;;;;;;5042658;28;20703;-34
2024/02/22 02:55:29;;;;;;;5.32;4.82;;;11.20;99.90;;;;;;5041839;28;20576;-35
2024/02/22 02:57:55;;;;;;;4.35;4.05;;;11.20;99.90;;;;;;5043123;28;20134;-32
2024/02/22 03:00:21;;;;;;;5.82;4.70;;;11.20;99.90;;;;;;5042557;28;20496;-36
2024/02/22 03:02:46;;;;;;;4.65;4.25;;;11.20;99.90;;;;;;5041966;28;20028;-36
2024/02/22 03:05:12;;;;;;;4.82;4.43;;;11.20;99.90;;;;;;5042626;28;20094;-34
2024/02/22 03:07:38;;;;;;;5.53;5.03;;;11.20;99.90;;;;;;5042868;28;20398;-34
2024/02/22 03:10:06;;;;;;;5.55;5.05;;;11.30;99.90;;;;;;5041907;28;20049;-35
2024/02/22 03:12:32;;;;;;;7.28;6.57;;;11.30;99.90;;;;;;5042067;28;20071;-36
2024/02/22 03:14:59;;;;;;;5.97;5.47;;;11.30;99.90;;;;;;5042249;28;20543;-34
2024/02/22 03:17:24;;;;;;;7.32;6.63;;;11.30;99.90;;;;;;5041534;28;20032;-37
2024/02/22 03:19:52;;;;;;;6.97;6.28;;;11.30;99.90;;;;;;5042211;28;20033;-35
2024/02/22 03:22:21;;;;;;;7.28;5.80;;;11.30;99.90;;;;;;5038747;28;20080;-32
2024/02/22 03:24:48;;;;;;;5.38;4.88;;;11.30;99.90;;;;;;5042146;28;20039;-35
2024/02/22 03:27:13;;;;;;;6.47;5.82;;;11.40;99.90;;;;;;5042067;28;20334;-37
2024/02/22 03:29:39;;;;;;;6.82;5.95;;;11.40;99.90;;;;;;5042243;28;20518;-37
2024/02/22 03:32:05;;;;;;;6.70;6.00;;;11.40;99.90;;;;;;5041451;28;20017;-37
2024/02/22 03:34:33;;;;;;;6.82;5.40;;;11.40;99.90;;;;;;5041834;28;20040;-33
2024/02/22 03:36:59;;;;;;;6.22;5.63;;;11.40;99.90;;;;;;5041149;28;20503;-36
2024/02/22 03:39:24;;;;;;;5.43;4.93;;;11.40;99.90;;;;;;5041988;28;20128;-36
2024/02/22 03:41:50;;;;;;;6.05;5.47;;;11.40;99.90;;;;;;5042017;28;20137;-37
2024/02/22 03:44:16;;;;;;;6.03;5.45;;;11.40;99.90;;;;;;5040724;28;20067;-36
2024/02/22 03:46:51;;;;;;;6.50;5.82;;;11.40;99.90;;;;;;5042096;28;20020;-35
2024/02/22 03:49:17;;;;;;;7.32;6.63;;;11.40;99.90;;;;;;5041722;28;20048;-35
2024/02/22 03:51:43;;;;;;;7.57;6.13;;;11.40;99.90;;;;;;5041255;28;20162;-37
2024/02/22 03:54:11;;;;;;;6.68;5.90;;;11.40;99.90;;;;;;5041651;28;20140;-37
2024/02/22 03:56:37;;;;;;;6.60;5.85;;;11.40;99.90;;;;;;5041467;28;20028;-36
2024/02/22 03:59:03;;;;;;;6.72;6.05;;;11.40;99.90;;;;;;5040753;28;20021;-36
2024/02/22 04:01:30;;;;;;;7.53;6.68;;;11.40;99.90;;;;;;5040967;28;20063;-37
2024/02/22 04:03:55;;;;;;;6.28;5.68;;;11.40;99.90;;;;;;5041619;28;20758;-35
2024/02/22 04:06:21;;;;;;;6.65;6.03;;;11.40;99.90;;;;;;5041260;28;20132;-34
2024/02/22 04:08:47;;;;;;;7.70;5.85;;;11.50;99.90;;;;;;5041434;28;20024;-34
2024/02/22 04:11:12;;;;;;;7.05;6.30;;;11.40;99.90;;;;;;5041093;28;20558;-33
2024/02/22 04:13:39;;;;;;;8.32;6.32;;;11.50;99.90;;;;;;5040860;28;20114;-33
2024/02/22 04:16:05;;;;;;;9.00;7.18;;;11.50;99.90;;;;;;5041074;28;20029;-36
2024/02/22 04:18:31;;;;;;;6.70;5.97;;;11.40;99.90;;;;;;5040723;28;20364;-37
2024/02/22 04:20:56;;;;;;;7.95;6.15;;;11.40;99.90;;;;;;5040159;28;20473;-33
2024/02/22 04:23:22;;;;;;;8.27;6.20;;;11.40;99.90;;;;;;5040261;28;20032;-35
2024/02/22 04:25:48;;;;;;;10.10;6.45;;;11.50;99.90;;;;;;5041109;28;20037;-34
2024/02/22 04:28:18;;;;;;;15.65;8.52;;;11.50;99.90;;;;;;5040297;28;20029;-34
2024/02/22 04:30:45;;;;;;;7.07;6.38;;;11.50;99.90;;;;;;5041433;28;20116;-35
2024/02/22 04:33:14;;;;;;;9.45;6.00;;;11.50;99.90;;;;;;5040129;28;20028;-35
2024/02/22 04:35:46;;;;;;;8.80;6.47;;;11.50;99.90;;;;;;5040634;28;20035;-36
2024/02/22 04:38:11;;;;;;;8.38;5.90;;;11.50;99.90;;;;;;5040390;28;20025;-36
2024/02/22 04:40:38;;;;;;;8.75;5.65;;;11.50;99.90;;;;;;5039974;28;20075;-35
2024/02/22 04:43:04;;;;;;;7.75;5.95;;;11.50;99.90;;;;;;5040867;28;20020;-36
2024/02/22 04:45:30;;;;;;;7.10;6.00;;;11.50;99.90;;;;;;5029697;28;20074;-35
2024/02/22 04:47:57;;;;;;;6.95;6.03;;;11.50;99.90;;;;;;5039661;28;20036;-36
2024/02/22 04:50:23;;;;;;;6.85;5.70;;;11.50;99.90;;;;;;5040382;28;20032;-33
2024/02/22 04:52:48;;;;;;;7.53;5.68;;;11.50;99.90;;;;;;5040384;28;20025;-36
2024/02/22 04:55:14;;;;;;;6.78;5.80;;;11.40;99.90;;;;;;5038192;28;20503;-37
2024/02/22 04:57:40;;;;;;;7.03;5.93;;;11.40;99.90;;;;;;5040135;28;20039;-38
2024/02/22 05:00:08;;;;;;;7.43;6.00;;;11.40;99.90;;;;;;5039218;28;20031;-35
2024/02/22 05:02:34;;;;;;;10.13;6.65;;;11.40;99.90;;;;;;5038867;28;20363;-34
2024/02/22 05:05:00;;;;;;;7.60;5.80;;;11.40;99.90;;;;;;5039914;28;20512;-34
2024/02/22 05:07:25;;;;;;;9.95;6.43;;;11.40;99.90;;;;;;5040179;28;20040;-36
2024/02/22 05:09:51;;;;;;;8.65;6.38;;;11.30;99.90;;;;;;5039582;28;20036;-37
2024/02/22 05:12:16;;;;;;;8.95;5.97;;;11.30;99.90;;;;;;5039796;28;20036;-37
2024/02/22 05:14:46;;;;;;;6.90;5.20;;;11.30;99.90;;;;;;5040386;28;20025;-35
2024/02/22 05:17:12;;;;;;;8.30;5.68;;;11.30;99.90;;;;;;5040165;28;20033;-36
2024/02/22 05:19:39;;;;;;;9.73;5.95;;;11.20;99.90;;;;;;5040750;28;20021;-34
2024/02/22 05:22:04;;;;;;;7.70;5.38;;;11.20;99.90;;;;;;5040441;28;20147;-36
2024/02/22 05:24:31;;;;;;;6.68;4.82;;;11.20;99.90;;;;;;5039230;28;20052;-33
2024/02/22 05:26:57;;;;;;;7.28;4.15;;;11.20;99.90;;;;;;5040055;28;20039;-37
2024/02/22 05:29:23;;;;;;;9.20;4.22;;;11.20;99.90;;;;;;5039465;28;20564;-32
2024/02/22 05:31:52;;;;;;;7.60;4.97;;;11.10;99.90;;;;;;5040223;28;20017;-38
2024/02/22 05:34:18;;;;;;;7.60;4.20;;;11.10;99.90;;;;;;5040301;28;20060;-35
2024/02/22 05:36:44;;;;;;;5.60;3.72;;;11.00;99.90;;;;;;5038693;28;20029;-35
2024/02/22 05:39:11;;;;;;;9.45;4.20;;;10.90;99.90;;;;;;5039432;28;20041;-36
2024/02/22 05:41:37;;;;;;;9.82;3.92;;;10.80;99.90;;;;;;5039396;28;20032;-33
2024/02/22 05:44:03;;;;;;;7.95;3.42;;;10.90;99.90;;;;;;5038881;28;20470;-32
2024/02/22 05:46:28;;;;;;;7.63;3.30;;;10.80;99.90;;;;;;5040563;28;20079;-35
2024/02/22 05:48:57;;;;;;;8.13;3.55;;;10.90;99.90;;;;;;5040317;28;20028;-36
2024/02/22 05:51:23;;;;;;;11.55;3.38;;;10.90;99.90;;;;;;5040380;28;20033;-37
2024/02/22 05:53:50;;;;;;;7.20;2.75;;;10.90;99.90;;;;;;5040690;28;20025;-35
2024/02/22 05:56:16;;;;;;;8.00;2.95;;;10.90;99.90;;;;;;5040420;28;20021;-34
2024/02/22 05:58:41;;;;;;;6.30;2.95;;;10.80;99.90;;;;;;5040417;28;20028;-37
2024/02/22 06:01:07;;;;;;;5.35;2.67;;;10.90;99.90;;;;;;5039646;28;20577;-37
2024/02/22 06:03:33;;;;;;;4.50;2.45;;;10.80;99.90;;;;;;5040523;28;20060;-33
2024/02/22 06:05:58;;;;;;;4.45;2.42;;;10.80;99.90;;;;;;5039546;28;20048;-34
2024/02/22 06:08:24;;;;;;;6.03;2.35;;;10.80;99.90;;;;;;5040521;28;20025;-33
2024/02/22 06:10:52;;;;;;;4.07;2.28;;;10.80;99.90;;;;;;5040951;28;20040;-37
2024/02/22 06:13:17;;;;;;;5.38;2.60;;;10.90;99.90;;;;;;5037999;28;20126;-33
2024/02/22 06:15:43;;;;;;;5.50;2.38;;;10.90;99.90;;;;;;5039720;28;20046;-32
2024/02/22 06:18:11;;;;;;;3.65;2.40;;;10.90;99.90;;;;;;5036166;28;20032;-38
2024/02/22 06:20:37;;;;;;;9.27;3.10;;;10.80;99.90;;;;;;5038823;28;20833;-33
2024/02/22 06:23:03;;;;;;;7.22;3.67;;;10.80;99.90;;;;;;5039527;28;20017;-35
2024/02/22 06:25:32;;;;;;;7.93;3.50;;;10.90;99.90;;;;;;5039134;28;20515;-37
2024/02/22 06:27:58;;;;;;;6.85;4.28;;;10.90;99.90;;;;;;5038895;28;20772;-32
2024/02/22 06:30:23;;;;;;;6.68;4.88;;;10.90;99.90;;;;;;5039801;28;20033;-31
2024/02/22 06:32:49;;;;;;;6.55;4.53;;;10.90;99.90;;;;;;5039437;28;20791;-32
2024/02/22 06:35:17;;;;;;;6.75;5.28;;;10.90;99.90;;;;;;5039558;28;20817;-35
2024/02/22 06:37:44;;;;;;;8.93;5.32;;;10.90;99.90;;;;;;5039047;28;20464;-32
2024/02/22 06:40:14;;;;;;;6.93;5.13;;;10.90;99.90;;;;;;5038920;28;20033;-35
2024/02/22 06:42:40;;;;;;;7.43;5.45;;;10.90;99.90;;;;;;5039661;28;20021;-34
2024/02/22 06:45:09;;;;;;;8.20;5.47;;;10.90;99.90;;;;;;5039771;28;20148;-36
2024/02/22 06:47:35;;;;;;;7.60;4.85;;;10.90;99.90;;;;;;5036394;28;20054;-37
2024/02/22 06:50:00;;;;;;;6.47;5.28;;;10.90;99.90;;;;;;5038857;28;20029;-35
2024/02/22 06:52:26;;;;;;;7.43;5.15;;;10.90;99.90;;;;;;5038145;28;20112;-36
2024/02/22 06:54:52;;;;;;;5.82;4.78;;;11.00;99.90;;;;;;5038384;28;20036;-34
2024/02/22 06:57:18;;;;;;;6.45;4.50;;;11.00;99.90;;;;;;5038179;28;20071;-38
2024/02/22 06:59:43;;;;;;;5.97;4.43;;;11.00;99.90;;;;;;5038632;28;20031;-38
2024/02/22 07:02:10;;;;;;;7.32;4.45;;;11.00;99.90;;;;;;5037245;28;20021;-37
2024/02/22 07:04:39;;;;;;;7.50;4.90;;;11.00;99.90;;;;;;5038379;28;20040;-38
2024/02/22 07:07:04;;;;;;;7.30;4.57;;;11.00;99.90;;;;;;5039064;28;20116;-36
2024/02/22 07:09:30;;;;;;;7.95;5.13;;;11.00;99.90;;;;;;5037477;28;20043;-35
2024/02/22 07:11:57;;;;;;;6.80;4.68;;;11.00;99.90;;;;;;5038401;28;20041;-35
2024/02/22 07:14:23;;;;;;;7.15;5.00;;;11.10;99.90;;;;;;5037545;28;20024;-38
2024/02/22 07:16:50;;;;;;;5.10;4.45;;;11.00;99.90;;;;;;5037114;28;20025;-32
2024/02/22 07:19:16;;;;;;;6.13;4.10;;;11.00;99.90;;;;;;5037271;28;20033;-33
2024/02/22 07:21:42;;;;;;;6.65;4.20;;;11.00;99.90;;;;;;5037546;28;20654;-38
2024/02/22 07:24:07;;;;;;;6.70;4.70;;;11.00;99.90;;;;;;5037563;28;20028;-37
2024/02/22 07:26:33;;;;;;;8.07;4.68;;;11.00;99.90;;;;;;5041290;28;20521;-38
2024/02/22 07:28:59;;;;;;;6.28;4.20;;;11.00;99.90;;;;;;5041881;28;20025;-32
2024/02/22 07:31:28;;;;;;;4.50;3.58;;;11.10;99.90;;;;;;5042030;28;20047;-36
2024/02/22 07:33:53;;;;;;;10.40;5.55;;;11.10;99.90;;;;;;5042001;28;20078;-38
2024/02/22 07:36:19;;;;;;;8.50;4.07;;;11.10;99.90;;;;;;5041718;28;20017;-34
2024/02/22 07:38:47;;;;;;;8.50;4.45;;;11.20;99.90;;;;;;5041777;28;20024;-37
2024/02/22 07:41:16;;;;;;;7.13;5.03;;;11.20;99.90;;;;;;5042580;28;20025;-36
2024/02/22 07:43:46;;;;;;;7.32;5.00;;;11.30;99.90;;;;;;5041510;28;20498;-34
2024/02/22 07:46:13;;;;;;;9.40;5.15;;;11.20;99.90;;;;;;5041271;28;20044;-36
2024/02/22 07:48:39;;;;;;;8.52;5.60;;;11.30;99.90;;;;;;5041366;28;20017;-37
2024/02/22 07:51:09;;;;;;;9.77;5.88;;;11.30;99.90;;;;;;5040390;28;20021;-38
2024/02/22 07:53:36;;;;;;;9.02;5.80;;;11.30;99.90;;;;;;5042692;28;20020;-32
2024/02/22 07:56:06;;;;;;;6.80;5.07;;;11.20;99.90;;;;;;5041532;28;20096;-35
2024/02/22 07:58:58;;;;;;;8.60;6.45;;;11.30;99.90;;;;;;5040649;28;20033;-34
2024/02/22 08:01:23;;;;;;;8.43;5.97;;;11.30;99.90;;;;;;5041020;28;20417;-33
2024/02/22 08:03:49;;;;;;;9.73;6.60;;;11.30;99.90;;;;;;5040785;28;20359;-36
2024/02/22 08:06:18;;;;;;;10.27;7.25;;;11.30;99.90;;;;;;5039910;28;20440;-34
2024/02/22 08:08:43;;;;;;;6.97;6.15;;;11.30;99.90;;;;;;5040424;28;20451;-36
2024/02/22 08:11:11;;;;;;;7.47;6.45;;;11.30;99.90;;;;;;5039447;28;20265;-35
2024/02/22 08:13:36;;;;;;;7.20;5.75;;;11.40;99.90;;;;;;5041001;28;20603;-36
2024/02/22 08:16:06;;;;;;;8.00;5.20;;;11.40;99.90;;;;;;5040214;28;20035;-36
2024/02/22 08:18:36;;;;;;;6.55;5.32;;;11.40;99.90;;;;;;5040399;28;20642;-37
2024/02/22 08:21:08;;;;;;;6.57;5.88;;;11.40;99.90;;;;;;5041298;28;20021;-36
2024/02/22 08:23:34;;;;;;;5.70;5.20;;;11.40;99.90;;;;;;5041672;28;20324;-33
2024/02/22 08:26:00;;;;;;;7.50;5.88;;;11.40;99.90;;;;;;5040837;28;20919;-32
2024/02/22 08:28:27;;;;;;;6.43;5.82;;;11.40;99.90;;;;;;5040541;28;20029;-35
2024/02/22 08:31:00;;;;;;;8.00;6.22;;;11.40;99.90;;;;;;5040805;28;20021;-34
2024/02/22 08:33:26;;;;;;;6.82;6.13;;;11.40;99.90;;;;;;5040403;28;20095;-35
2024/02/22 08:35:54;;;;;;;6.82;5.82;;;11.30;99.90;;;;;;5040375;28;20024;-33
2024/02/22 08:38:20;;;;;;;5.50;5.00;;;11.30;99.90;;;;;;5040206;28;20564;-35
2024/02/22 08:40:45;;;;;;;5.90;5.10;;;11.30;99.90;;;;;;5039798;28;20172;-37
2024/02/22 08:43:11;;;;;;;5.15;4.65;;;11.30;99.90;;;;;;5041066;28;20584;-36
2024/02/22 08:45:37;;;;;;;5.55;4.97;;;11.30;99.90;;;;;;5041277;28;20479;-35
2024/02/22 08:48:03;;;;;;;4.55;4.15;;;11.30;99.90;;;;;;5040646;28;20024;-37
2024/02/22 08:50:32;;;;;;;4.43;4.00;;;11.30;99.90;;;;;;5040712;28;20033;-37
2024/02/22 08:52:57;;;;;;;4.13;3.83;;;11.30;99.90;;;;;;5040204;28;20082;-37
2024/02/22 08:55:24;;;;;;;4.20;3.90;;;11.40;99.90;;;;;;5039392;28;20029;-35
2024/02/22 08:57:50;;;;;;;4.18;3.50;;;11.40;99.90;;;;;;5040838;28;20029;-36
2024/02/22 09:00:19;;;;;;;4.10;3.45;;;11.40;99.90;;;;;;5040816;28;20039;-37
2024/02/22 09:02:46;;;;;;;3.22;2.92;;;11.40;99.90;;;;;;5040037;28;20506;-36
2024/02/22 09:05:11;;;;;;;3.85;3.50;;;11.50;99.90;;;;;;5040811;28;20101;-38
2024/02/22 09:07:37;;;;;;;3.50;3.20;;;11.60;99.90;;;;;;5039106;28;20029;-33
2024/02/22 09:10:06;;;;;;;5.72;3.40;;;11.60;99.90;;;;;;5040243;28;20661;-37
2024/02/22 09:12:32;;;;;;;3.95;3.47;;;11.60;99.90;;;;;;5039901;28;20344;-38
2024/02/22 09:14:57;;;;;;;4.57;4.10;;;11.70;99.90;;;;;;5039669;28;20498;-38
2024/02/22 09:17:23;;;;;;;4.22;3.92;;;11.70;99.90;;;;;;5039399;28;20559;-35
2024/02/22 09:19:49;;;;;;;4.07;3.78;;;11.70;99.90;;;;;;5041109;28;20040;-33
2024/02/22 09:22:15;;;;;;;4.50;3.83;;;11.80;99.90;;;;;;5039541;28;20794;-34
2024/02/22 09:24:42;;;;;;;3.22;2.97;;;11.80;99.90;;;;;;5040620;28;20044;-36
2024/02/22 09:27:08;;;;;;;3.10;2.90;;;11.90;99.90;;;;;;5040657;28;20462;-36
2024/02/22 09:29:35;;;;;;;4.13;3.40;;;11.90;99.90;;;;;;5034955;28;20039;-36
2024/02/22 09:32:01;;;;;;;3.72;3.42;;;12.00;99.90;;;;;;5039528;28;20044;-35
2024/02/22 09:34:27;;;;;;;3.38;3.08;;;12.10;99.90;;;;;;5039098;28;20064;-35
2024/02/22 09:36:53;;;;;;;2.63;2.42;;;12.10;99.90;;;;;;5039394;28;20079;-38
2024/02/22 09:39:21;;;;;;;3.75;2.50;;;12.10;99.90;;;;;;5039704;28;20424;-34
2024/02/22 09:41:47;;;;;;;2.60;2.40;;;12.20;99.90;;;;;;5040915;28;20024;-37
2024/02/22 09:44:13;;;;;;;2.60;2.40;;;12.20;99.90;;;;;;5039603;28;20013;-33
2024/02/22 09:46:39;;;;;;;3.00;2.80;;;12.20;99.90;;;;;;5040479;28;20024;-34
2024/02/22 09:49:05;;;;;;;2.78;2.58;;;12.20;99.90;;;;;;5039876;28;20017;-38
2024/02/22 09:51:31;;;;;;;2.30;2.10;;;12.20;99.90;;;;;;5039009;28;20628;-37
2024/02/22 09:53:57;;;;;;;2.00;1.90;;;12.20;99.90;;;;;;5039705;28;20185;-36
2024/02/22 09:56:24;;;;;;;2.60;2.40;;;12.20;99.90;;;;;;5039424;28;20092;-37
2024/02/22 09:58:49;;;;;;;2.92;2.72;;;12.20;99.90;;;;;;5039042;28;20060;-37
2024/02/22 10:01:15;;;;;;;3.00;2.80;;;12.30;99.90;;;;;;5040151;28;20496;-37
2024/02/22 10:03:41;;;;;;;4.25;3.00;;;12.30;99.90;;;;;;5038707;28;20078;-36
2024/02/22 10:06:17;;;;;;;3.40;3.20;;;12.40;99.90;;;;;;5039021;28;20032;-37
2024/02/22 10:08:44;;;;;;;2.30;2.10;;;12.40;99.90;;;;;;5039387;28;20086;-38
2024/02/22 10:11:10;;;;;;;2.30;2.10;;;12.40;99.90;;;;;;5039073;28;20243;-37
2024/02/22 10:13:36;;;;;;;2.28;2.13;;;12.40;99.90;;;;;;5039417;28;20038;-36
2024/02/22 10:16:14;;;;;;;1.95;1.85;;;12.40;99.90;;;;;;5039198;28;20025;-37
2024/02/22 10:18:41;;;;;;;1.90;1.80;;;12.40;99.90;;;;;;5038471;28;20044;-38
2024/02/22 10:21:17;;;;;;;1.80;1.70;;;12.40;99.90;;;;;;5039490;28;20044;-34
2024/02/22 10:23:52;;;;;;;1.60;1.50;;;12.40;99.90;;;;;;5039238;28;20028;-35
2024/02/22 10:26:18;;;;;;;1.25;1.08;;;12.40;99.90;;;;;;5037769;28;20543;-35
2024/02/22 10:28:54;;;;;;;1.40;1.30;;;12.40;99.90;;;;;;5039297;28;20107;-34
2024/02/22 10:31:20;;;;;;;1.40;1.30;;;12.40;99.90;;;;;;5039013;28;20029;-36
2024/02/22 10:33:47;;;;;;;1.90;1.80;;;12.40;99.90;;;;;;5039046;28;20496;-37
2024/02/22 10:36:14;;;;;;;1.90;1.80;;;12.40;99.90;;;;;;5039490;28;20270;-36
2024/02/22 10:38:40;;;;;;;2.50;1.65;;;12.40;99.90;;;;;;5039344;28;20025;-37
2024/02/22 10:41:09;;;;;;;2.70;2.03;;;12.30;99.90;;;;;;5038014;28;20051;-35
2024/02/22 10:43:38;;;;;;;1.63;1.52;;;12.30;99.90;;;;;;5039112;28;20025;-36
2024/02/22 10:46:07;;;;;;;1.65;1.55;;;12.30;99.90;;;;;;5038165;28;20041;-38
2024/02/22 10:48:34;;;;;;;1.50;1.40;;;12.40;99.90;;;;;;5039210;28;20835;-33
2024/02/22 10:51:03;;;;;;;1.80;1.70;;;12.40;99.90;;;;;;5039280;28;20029;-35
2024/02/22 10:53:35;;;;;;;1.35;1.25;;;12.30;99.90;;;;;;5037188;28;20229;-36
2024/02/22 10:56:06;;;;;;;1.52;1.42;;;12.30;99.90;;;;;;5038751;28;20083;-37
2024/02/22 10:58:34;;;;;;;2.25;1.15;;;12.30;99.90;;;;;;5039675;28;20076;-38
2024/02/22 11:01:06;;;;;;;1.10;1.10;;;12.40;99.90;;;;;;5042142;28;20047;-38
2024/02/22 11:03:33;;;;;;;1.02;1.02;;;12.40;99.90;;;;;;5042989;28;20029;-38
2024/02/22 11:06:03;;;;;;;0.95;0.95;;;12.40;99.90;;;;;;5042094;28;20079;-36
2024/02/22 11:08:29;;;;;;;1.00;1.00;;;12.40;99.90;;;;;;5042674;28;20033;-37
2024/02/22 11:11:10;;;;;;;1.80;1.15;;;12.50;99.90;;;;;;5043570;28;20541;-38
2024/02/22 11:13:38;;;;;;;1.30;1.20;;;12.50;99.90;;;;;;5032958;28;20045;-34
2024/02/22 11:16:17;;;;;;;2.30;1.10;;;12.60;99.90;;;;;;5042012;28;20090;-36
2024/02/22 11:18:42;;;;;;;0.90;0.90;;;12.60;99.90;;;;;;5032288;28;20021;-37
2024/02/22 11:21:14;;;;;;;1.52;1.10;;;12.60;99.90;;;;;;5042065;28;20592;-38
2024/02/22 11:23:40;;;;;;;1.23;1.13;;;12.60;99.90;;;;;;5042013;28;20063;-36
2024/02/22 11:26:05;;;;;;;1.30;1.20;;;12.60;99.90;;;;;;5042588;28;20148;-33
2024/02/22 11:28:31;;;;;;;0.90;0.90;;;12.60;99.90;;;;;;5041889;28;20028;-36
2024/02/22 11:31:14;;;;;;;1.27;1.17;;;12.60;99.90;;;;;;5042442;28;20103;-35
2024/02/22 11:33:40;;;;;;;1.20;1.10;;;12.70;99.90;;;;;;5041935;28;20055;-32
2024/02/22 11:36:06;;;;;;;1.05;1.05;;;12.70;99.90;;;;;;5041920;28;20055;-36
2024/02/22 11:38:32;;;;;;;1.08;1.02;;;12.70;99.90;;;;;;5042071;28;20131;-34
2024/02/22 11:41:04;;;;;;;0.90;0.90;;;12.70;99.90;;;;;;5042063;28;20536;-36
2024/02/22 11:43:30;;;;;;;0.77;0.77;;;12.70;99.90;;;;;;5040632;28;20025;-36
2024/02/22 11:46:00;;;;;;;0.88;0.88;;;12.70;99.90;;;;;;5042203;28;20037;-36
2024/02/22 11:48:26;;;;;;;0.90;0.90;;;12.70;99.90;;;;;;5041861;28;20098;-35
2024/02/22 11:50:52;;;;;;;0.70;0.70;;;12.70;99.90;;;;;;5042080;28;20724;-34
2024/02/22 11:53:18;;;;;;;0.90;0.90;;;12.70;99.90;;;;;;5041403;28;20025;-37
2024/02/22 11:55:49;;;;;;;0.80;0.80;;;12.70;99.90;;;;;;5042270;28;20021;-40
2024/02/22 11:58:15;;;;;;;1.13;1.02;;;12.70;99.90;;;;;;5041125;28;20032;-37
2024/02/22 12:00:42;;;;;;;0.73;0.70;;;12.70;99.90;;;;;;5041356;28;20032;-34
2024/02/22 12:03:08;;;;;;;0.70;0.68;;;12.70;99.90;;;;;;5041573;28;20063;-36
2024/02/22 12:05:34;;;;;;;0.77;0.77;;;12.70;99.90;;;;;;5041378;28;20076;-38
2024/02/22 12:08:00;;;;;;;0.85;0.85;;;12.70;99.90;;;;;;5041733;28;20032;-37
2024/02/22 12:10:26;;;;;;;0.70;0.70;;;12.70;99.90;;;;;;5040680;28;20029;-38
2024/02/22 12:12:52;;;;;;;1.05;0.80;;;12.80;99.90;;;;;;5041403;28;20089;-37
2024/02/22 12:15:25;;;;;;;0.68;0.68;;;12.80;99.90;;;;;;5041031;28;20079;-36
2024/02/22 12:17:53;;;;;;;;;;;12.80;99.90;;;;;;5041310;28;20045;-35
2024/02/22 12:20:25;;;;;;;0.85;0.70;;;12.80;99.90;;;;;;5040893;28;19936;-41
2024/02/22 12:22:54;;;;;;;1.02;0.98;;;12.80;99.90;;;;;;5041859;28;20114;-35
2024/02/22 12:25:20;;;;;;;0.70;0.70;;;12.80;99.90;;;;;;5039046;28;20124;-36
2024/02/22 12:27:53;;;;;;;2.22;0.80;;;12.80;99.90;;;;;;5041816;28;20434;-35
2024/02/22 12:30:19;;;;;;;0.77;0.77;;;12.80;99.90;;;;;;5040942;28;20895;-38
2024/02/22 12:32:51;;;;;;;0.88;0.80;;;12.90;99.90;;;;;;5040562;28;20025;-32
2024/02/22 12:35:17;;;;;;;1.15;0.90;;;12.90;99.90;;;;;;5041273;28;20044;-37
2024/02/22 12:37:43;;;;;;;0.95;0.88;;;12.90;99.90;;;;;;5042262;28;20025;-34
2024/02/22 12:40:09;;;;;;;0.93;0.88;;;12.90;99.90;;;;;;5040422;28;20017;-34
2024/02/22 12:42:35;;;;;;;0.80;0.80;;;12.90;99.90;;;;;;5041135;28;20481;-33
2024/02/22 12:45:07;;;;;;;1.02;0.95;;;12.90;99.90;;;;;;5040983;28;20549;-38
2024/02/22 12:47:33;;;;;;;1.13;1.00;;;12.90;99.90;;;;;;5040714;28;20021;-37